Погода Пиренополисна неделю

Гояс, Бразилия

16 - 22 июля
  • 16июля
    Сегодня
    +16°
    +29°
    Ясно и безоблачно
    ВремяПогодаТемператураВлажностьДавлениеВетер, м/сВероятность осадков
    00:00Ясно и безоблачно+18°C49 %701 мм4.0 м/с5 %
    03:00Ясно и безоблачно+16°C51 %700 мм4.5 м/с5 %
    06:00Ясно и безоблачно+16°C50 %700 мм4.3 м/с5 %
    09:00Ясно и безоблачно+22°C40 %702 мм4.8 м/с5 %
    12:00Ясно и безоблачно+26°C27 %703 мм2.5 м/с5 %
    15:00Ясно и безоблачно+28°C25 %701 мм1.6 м/с5 %
    18:00Ясно и безоблачно+25°C37 %701 мм1.3 м/с5 %
    21:00Ясно и безоблачно+19°C49 %701 мм2.0 м/с5 %
  • 17июля
    Среда
    +16°
    +29°
    Ясно и безоблачно
    ВремяПогодаТемператураВлажностьДавлениеВетер, м/сВероятность осадков
    00:00Ясно и безоблачно+18°C50 %702 мм3.3 м/с5 %
    03:00Ясно и безоблачно+17°C54 %700 мм4.0 м/с5 %
    06:00Ясно и безоблачно+16°C56 %700 мм3.7 м/с5 %
    09:00Ясно и безоблачно+23°C40 %703 мм3.7 м/с5 %
    12:00Ясно и безоблачно+27°C29 %703 мм0.9 м/с5 %
    15:00Ясно и безоблачно+28°C28 %701 мм1.8 м/с5 %
    18:00Ясно и безоблачно+26°C34 %701 мм2.0 м/с5 %
    21:00Практически безоблачно+21°C36 %701 мм3.4 м/с5 %
  • 18июля
    Четверг
    +17°
    +29°
    Небольшая облачность
    ВремяПогодаТемператураВлажностьДавлениеВетер, м/сВероятность осадков
    00:00Практически безоблачно+19°C45 %700 мм3.7 м/с5 %
    03:00Небольшая облачность+17°C50 %699 мм3.5 м/с5 %
    06:00Облачно с прояснениями+16°C53 %699 мм2.8 м/с5 %
    09:00Ясно и безоблачно+23°C40 %702 мм3.1 м/с5 %
    12:00Практически безоблачно+27°C31 %702 мм2.3 м/с5 %
    15:00Небольшая облачность+29°C28 %700 мм0.6 м/с5 %
    18:00Ясно и безоблачно+26°C36 %700 мм1.6 м/с5 %
    21:00Ясно и безоблачно+21°C42 %700 мм3.0 м/с5 %
  • 19июля
    Пятница
    +17°
    +30°
    Ясно и безоблачно
    ВремяПогодаТемператураВлажностьДавлениеВетер, м/сВероятность осадков
    00:00Ясно и безоблачно+20°C46 %701 мм3.7 м/с5 %
    03:00Ясно и безоблачно+17°C51 %699 мм4.0 м/с5 %
    06:00Ясно и безоблачно+18°C55 %700 мм3.8 м/с5 %
    09:00Ясно и безоблачно+24°C42 %702 мм3.8 м/с5 %
    12:00Ясно и безоблачно+28°C33 %702 мм2.3 м/с5 %
    15:00Ясно и безоблачно+30°C27 %701 мм2.0 м/с5 %
    18:00Ясно и безоблачно+28°C32 %701 мм2.4 м/с5 %
    21:00Ясно и безоблачно+22°C39 %702 мм4.1 м/с5 %
  • 20июля
    Суббота
    +16°
    +30°
    Ясно и безоблачно
    ВремяПогодаТемператураВлажностьДавлениеВетер, м/сВероятность осадков
    00:00Ясно и безоблачно+20°C40 %701 мм4.4 м/с5 %
    03:00Ясно и безоблачно+18°C46 %700 мм4.6 м/с5 %
    06:00Ясно и безоблачно+18°C47 %700 мм4.4 м/с5 %
    09:00Ясно и безоблачно+23°C38 %702 мм4.7 м/с5 %
    12:00Ясно и безоблачно+27°C27 %702 мм2.9 м/с5 %
    15:00Ясно и безоблачно+29°C24 %700 мм1.9 м/с5 %
    18:00Ясно и безоблачно+27°C30 %700 мм2.7 м/с5 %
    21:00Ясно и безоблачно+21°C41 %700 мм3.6 м/с5 %
Мы используем cookies
Соглашаюсь